createdAt,value
2019-02-25T00:01:12.250Z,11.33
2019-02-25T00:03:18.427Z,14.57
2019-02-25T00:05:24.566Z,13.87
2019-02-25T00:07:30.636Z,12.37
2019-02-25T00:09:36.864Z,12.93
2019-02-25T00:11:43.033Z,10.80
2019-02-25T00:13:49.194Z,10.67
2019-02-25T00:15:55.354Z,11.13
2019-02-25T00:18:01.616Z,10.97
2019-02-25T00:20:11.477Z,10.57
2019-02-25T00:22:17.612Z,9.97
2019-02-25T00:24:23.780Z,11.10
2019-02-25T00:26:29.879Z,10.70
2019-02-25T00:28:35.981Z,10.53
2019-02-25T00:30:42.129Z,9.97
2019-02-25T00:32:48.301Z,10.23
2019-02-25T00:34:54.772Z,10.70
2019-02-25T00:37:01.030Z,10.50
2019-02-25T00:39:09.491Z,10.53
2019-02-25T00:41:15.694Z,11.00
2019-02-25T00:43:21.762Z,10.23
2019-02-25T00:45:28.016Z,9.87
2019-02-25T00:47:34.160Z,10.17
2019-02-25T00:49:40.337Z,10.97
2019-02-25T00:51:46.590Z,10.17
2019-02-25T00:53:52.729Z,10.00
2019-02-25T00:55:58.894Z,10.57
2019-02-25T00:58:05.055Z,9.10
2019-02-25T01:00:23.235Z,10.17
2019-02-25T01:02:29.354Z,10.77
2019-02-25T01:04:35.497Z,9.73
2019-02-25T01:06:41.667Z,10.57
2019-02-25T01:08:47.833Z,10.27
2019-02-25T01:10:53.909Z,10.77
2019-02-25T01:12:59.940Z,9.60
2019-02-25T01:15:09.686Z,10.37
2019-02-25T01:17:15.842Z,11.10
2019-02-25T01:19:21.993Z,10.67
2019-02-25T01:21:28.154Z,10.53
2019-02-25T01:23:34.321Z,10.47
2019-02-25T01:25:40.480Z,9.60
2019-02-25T01:27:46.630Z,10.33
2019-02-25T01:29:52.892Z,10.20
2019-02-25T01:31:59.045Z,11.00
2019-02-25T01:34:05.196Z,9.50
2019-02-25T01:36:11.460Z,10.40
2019-02-25T01:38:18.161Z,9.97
2019-02-25T01:40:24.641Z,10.03
2019-02-25T01:42:31.301Z,10.07
2019-02-25T01:44:37.525Z,9.57
2019-02-25T01:46:43.686Z,10.53
2019-02-25T01:48:49.838Z,11.30
2019-02-25T01:50:55.896Z,10.17
2019-02-25T01:53:02.053Z,10.17
2019-02-25T01:55:11.282Z,10.47
2019-02-25T01:57:17.448Z,10.97
2019-02-25T01:59:23.611Z,10.73
2019-02-25T02:01:29.693Z,10.17
2019-02-25T02:03:35.810Z,10.10
2019-02-25T02:05:41.896Z,10.23
2019-02-25T02:07:48.019Z,10.33
2019-02-25T02:09:54.069Z,10.43
2019-02-25T02:12:00.243Z,10.07
2019-02-25T02:14:06.486Z,9.97
2019-02-25T02:16:12.649Z,10.90
2019-02-25T02:18:18.708Z,10.73
2019-02-25T02:20:24.969Z,11.67
2019-02-25T02:22:31.030Z,10.80
2019-02-25T02:24:37.081Z,9.57
2019-02-25T02:26:43.349Z,11.10
2019-02-25T02:28:49.492Z,11.50
2019-02-25T02:30:55.552Z,10.50
2019-02-25T02:33:01.712Z,10.50
2019-02-25T02:35:08.898Z,10.63
2019-02-25T02:37:15.051Z,9.87
2019-02-25T02:39:21.218Z,12.20
2019-02-25T02:41:27.871Z,11.93
2019-02-25T02:43:33.930Z,11.43
2019-02-25T02:45:56.897Z,10.97
2019-02-25T02:48:14.278Z,9.60
2019-02-25T02:50:23.882Z,12.13
2019-02-25T02:52:30.738Z,10.33
2019-02-25T02:54:37.640Z,11.27
2019-02-25T02:56:43.782Z,11.33
2019-02-25T02:58:50.013Z,11.43
2019-02-25T03:00:56.269Z,11.20
2019-02-25T03:03:02.435Z,10.57
2019-02-25T03:05:15.860Z,11.67
2019-02-25T03:07:23.852Z,10.47
2019-02-25T03:09:29.870Z,11.53
2019-02-25T03:11:35.971Z,10.60
2019-02-25T03:13:42.123Z,10.03
2019-02-25T03:15:48.281Z,10.33
2019-02-25T03:17:54.442Z,10.57
2019-02-25T03:20:00.590Z,10.13
2019-02-25T03:22:07.767Z,12.10
2019-02-25T03:24:13.934Z,11.07
2019-02-25T03:26:20.044Z,10.60
2019-02-25T03:28:26.168Z,10.23
2019-02-25T03:30:32.528Z,10.30
2019-02-25T03:32:38.673Z,9.70
2019-02-25T03:34:44.848Z,11.10
2019-02-25T03:36:51.090Z,10.03
2019-02-25T03:38:57.144Z,10.13
2019-02-25T03:41:03.424Z,11.23
2019-02-25T03:43:09.668Z,11.87
2019-02-25T03:45:18.684Z,10.93
2019-02-25T03:47:24.847Z,10.03
2019-02-25T03:49:30.898Z,9.83
2019-02-25T03:51:36.997Z,10.70
2019-02-25T03:53:43.154Z,11.70
2019-02-25T03:55:49.435Z,10.30
2019-02-25T03:57:55.658Z,9.30
2019-02-25T04:00:01.903Z,9.63
2019-02-25T04:02:09.891Z,9.93
2019-02-25T04:04:16.450Z,11.13
2019-02-25T04:06:22.515Z,11.47
2019-02-25T04:08:28.575Z,11.90
2019-02-25T04:10:34.744Z,10.77
2019-02-25T04:12:42.108Z,12.40
2019-02-25T04:14:48.277Z,10.93
2019-02-25T04:16:54.430Z,11.07
2019-02-25T04:19:00.487Z,12.47
2019-02-25T04:21:07.772Z,10.83
2019-02-25T04:23:13.934Z,11.20
2019-02-25T04:25:20.087Z,11.13
2019-02-25T04:27:26.242Z,11.43
2019-02-25T04:29:32.310Z,11.53
2019-02-25T04:31:38.564Z,11.63
2019-02-25T04:33:44.733Z,11.23
2019-02-25T04:35:50.879Z,11.87
2019-02-25T04:37:57.026Z,11.63
2019-02-25T04:40:03.175Z,13.00
2019-02-25T04:42:09.445Z,10.87
2019-02-25T04:44:15.517Z,11.90
2019-02-25T04:46:21.760Z,12.17
2019-02-25T04:48:27.924Z,12.03
2019-02-25T04:50:33.926Z,12.80
2019-02-25T04:52:40.020Z,12.33
2019-02-25T04:54:46.295Z,11.47
2019-02-25T04:56:52.453Z,13.50
2019-02-25T04:58:58.715Z,13.27
2019-02-25T05:01:04.865Z,13.27
2019-02-25T05:03:13.699Z,12.40
2019-02-25T05:05:19.902Z,13.53
2019-02-25T05:07:26.229Z,15.47
2019-02-25T05:09:32.475Z,14.17
2019-02-25T05:11:38.743Z,13.80
2019-02-25T05:13:44.989Z,13.53
2019-02-25T05:15:51.044Z,13.87
2019-02-25T05:17:57.200Z,14.70
2019-02-25T05:20:03.360Z,13.80
2019-02-25T05:22:09.523Z,14.67
2019-02-25T05:24:15.682Z,15.43
2019-02-25T05:26:21.925Z,14.67
2019-02-25T05:28:27.993Z,12.93
2019-02-25T05:30:34.355Z,13.30
2019-02-25T05:32:40.508Z,13.07
2019-02-25T05:34:46.508Z,13.43
2019-02-25T05:36:52.736Z,14.73
2019-02-25T05:38:58.909Z,12.47
2019-02-25T05:41:05.034Z,12.33
2019-02-25T05:43:11.135Z,17.23
2019-02-25T05:45:18.273Z,15.30
2019-02-25T05:47:25.461Z,15.93
2019-02-25T05:49:31.613Z,17.10
2019-02-25T05:51:37.770Z,14.63
2019-02-25T05:53:43.928Z,16.17
2019-02-25T05:55:49.987Z,17.03
2019-02-25T05:57:56.247Z,18.87
2019-02-25T06:00:09.363Z,16.00
2019-02-25T06:02:15.929Z,16.47
2019-02-25T06:04:22.084Z,14.37
2019-02-25T06:06:28.244Z,19.20
2019-02-25T06:08:34.521Z,18.90
2019-02-25T06:10:40.659Z,15.70
2019-02-25T06:12:46.596Z,17.10
2019-02-25T06:14:52.684Z,16.30
2019-02-25T06:16:58.865Z,17.33
2019-02-25T06:19:04.992Z,15.80
2019-02-25T06:21:11.157Z,15.97
2019-02-25T06:23:17.436Z,15.73
2019-02-25T06:25:23.685Z,16.07
2019-02-25T06:27:30.934Z,16.40
2019-02-25T06:29:37.394Z,17.17
2019-02-25T06:31:43.583Z,19.43
2019-02-25T06:33:50.651Z,18.57
2019-02-25T06:35:56.822Z,20.20
2019-02-25T06:38:02.967Z,19.57
2019-02-25T06:40:16.005Z,20.53
2019-02-25T06:42:22.367Z,22.60
2019-02-25T06:44:28.615Z,20.40
2019-02-25T06:46:34.882Z,18.10
2019-02-25T06:48:41.160Z,19.27
2019-02-25T06:50:47.408Z,19.30
2019-02-25T06:52:53.571Z,20.20
2019-02-25T06:54:59.707Z,19.33
2019-02-25T06:57:05.799Z,20.23
2019-02-25T06:59:12.137Z,21.07
2019-02-25T07:01:18.288Z,21.83
2019-02-25T07:03:24.471Z,21.90
2019-02-25T07:05:41.246Z,21.43
2019-02-25T07:07:51.751Z,20.43
2019-02-25T07:10:02.558Z,21.97
2019-02-25T07:12:18.987Z,21.80
2019-02-25T07:14:29.638Z,21.83
2019-02-25T07:16:40.218Z,24.43
2019-02-25T07:18:58.423Z,21.57
2019-02-25T07:21:18.241Z,22.60
2019-02-25T07:23:26.131Z,21.00
2019-02-25T07:25:36.773Z,21.30
2019-02-25T07:27:51.746Z,22.10
2019-02-25T07:30:02.419Z,23.90
2019-02-25T07:32:22.292Z,24.70
2019-02-25T07:34:30.908Z,24.07
2019-02-25T07:36:44.539Z,26.07
2019-02-25T07:38:58.069Z,24.33
2019-02-25T07:41:08.452Z,26.23
2019-02-25T07:43:18.071Z,22.77
2019-02-25T07:45:30.059Z,18.90
2019-02-25T07:47:37.658Z,22.10
2019-02-25T07:49:43.599Z,22.47
2019-02-25T07:52:00.199Z,24.83
2019-02-25T07:54:25.694Z,23.77
2019-02-25T07:56:39.562Z,24.13
2019-02-25T07:58:45.510Z,24.27
2019-02-25T08:00:55.952Z,25.10
2019-02-25T08:03:06.421Z,22.57
2019-02-25T08:05:30.508Z,22.07
2019-02-25T08:07:47.448Z,20.97
2019-02-25T08:09:58.289Z,17.43
2019-02-25T08:12:09.948Z,23.03
2019-02-25T08:14:17.786Z,21.87
2019-02-25T08:16:31.709Z,18.37
2019-02-25T08:18:54.856Z,21.77
2019-02-25T08:21:18.529Z,21.87
2019-02-25T08:23:27.559Z,19.43
2019-02-25T08:25:38.128Z,19.67
2019-02-25T08:27:48.987Z,19.60
2019-02-25T08:30:13.178Z,20.30
2019-02-25T08:32:23.831Z,18.20
2019-02-25T08:34:32.586Z,22.43
2019-02-25T08:37:10.057Z,24.43
2019-02-25T08:39:32.859Z,22.97
2019-02-25T08:41:41.615Z,21.83
2019-02-25T08:43:51.963Z,23.47
2019-02-25T08:45:59.770Z,21.33
2019-02-25T08:48:10.122Z,24.33
2019-02-25T08:50:16.273Z,19.53
2019-02-25T08:52:22.422Z,23.83
2019-02-25T08:54:28.598Z,22.67
2019-02-25T08:56:34.856Z,23.27
2019-02-25T08:58:42.715Z,19.57
2019-02-25T09:00:49.028Z,19.00
2019-02-25T09:02:55.281Z,20.83
2019-02-25T09:05:01.841Z,20.23
2019-02-25T09:07:08.100Z,23.00
2019-02-25T09:09:15.379Z,19.53
2019-02-25T09:11:21.402Z,23.30
2019-02-25T09:13:27.725Z,21.37
2019-02-25T09:15:33.964Z,23.17
2019-02-25T09:17:46.155Z,20.70
2019-02-25T09:19:58.950Z,21.10
2019-02-25T09:22:05.123Z,22.53
2019-02-25T09:24:11.390Z,20.83
2019-02-25T09:26:17.506Z,20.77
2019-02-25T09:28:23.919Z,19.80
2019-02-25T09:30:30.198Z,20.20
2019-02-25T09:32:36.429Z,17.27
2019-02-25T09:34:42.595Z,20.23
2019-02-25T09:36:48.825Z,20.47
2019-02-25T09:38:56.680Z,19.53
2019-02-25T09:41:03.121Z,17.10
2019-02-25T09:43:09.254Z,25.87
2019-02-25T09:45:17.872Z,23.10
2019-02-25T09:47:24.161Z,23.73
2019-02-25T09:49:30.420Z,19.80
2019-02-25T09:51:36.671Z,20.23
2019-02-25T09:53:42.929Z,22.67
2019-02-25T09:55:49.091Z,22.77
2019-02-25T09:57:55.291Z,24.33
2019-02-25T10:00:01.536Z,22.60
2019-02-25T10:02:07.966Z,25.10
2019-02-25T10:04:14.249Z,23.53
2019-02-25T10:06:20.492Z,25.93
2019-02-25T10:08:27.683Z,29.50
2019-02-25T10:10:33.935Z,28.27
2019-02-25T10:12:40.016Z,18.50
2019-02-25T10:14:46.133Z,28.80
2019-02-25T10:16:53.890Z,28.20
2019-02-25T10:19:00.182Z,30.10
2019-02-25T10:21:06.333Z,26.07
2019-02-25T10:23:12.341Z,37.87
2019-02-25T10:25:18.418Z,28.07
2019-02-25T10:27:24.505Z,28.27
2019-02-25T10:29:30.477Z,32.70
2019-02-25T10:31:39.663Z,31.13
2019-02-25T10:33:46.578Z,27.20
2019-02-25T10:35:52.734Z,28.83
2019-02-25T10:37:58.917Z,32.27
2019-02-25T10:40:08.446Z,30.93
2019-02-25T10:42:14.687Z,30.37
2019-02-25T10:44:20.784Z,32.30
2019-02-25T10:46:26.917Z,30.70
2019-02-25T10:48:34.254Z,30.80
2019-02-25T10:50:40.972Z,29.80
2019-02-25T10:52:49.367Z,33.00
2019-02-25T10:54:56.193Z,31.53
2019-02-25T10:57:03.121Z,30.70
2019-02-25T10:59:10.512Z,32.77
2019-02-25T11:01:19.399Z,24.63
2019-02-25T11:03:24.588Z,28.50
2019-02-25T11:05:30.929Z,30.70
2019-02-25T11:07:37.885Z,29.67
2019-02-25T11:09:48.250Z,27.17
2019-02-25T11:11:58.013Z,23.90
2019-02-25T11:14:05.016Z,32.93
2019-02-25T11:16:11.978Z,34.13
2019-02-25T11:18:20.278Z,31.13
2019-02-25T11:20:27.665Z,29.30
2019-02-25T11:22:38.069Z,36.90
2019-02-25T11:24:44.567Z,28.67
2019-02-25T11:26:50.820Z,25.80
2019-02-25T11:28:56.982Z,28.03
2019-02-25T11:31:03.244Z,31.57
2019-02-25T11:33:09.527Z,26.07
2019-02-25T11:35:16.472Z,32.60
2019-02-25T11:37:24.479Z,28.00
2019-02-25T11:39:32.499Z,31.53
2019-02-25T11:41:39.386Z,29.20
2019-02-25T11:43:48.670Z,28.53
2019-02-25T11:45:55.069Z,30.93
2019-02-25T11:48:02.362Z,34.10
2019-02-25T11:50:18.541Z,33.17
2019-02-25T11:52:24.815Z,25.13
2019-02-25T11:54:31.062Z,34.57
2019-02-25T11:56:37.233Z,30.77
2019-02-25T11:58:47.084Z,27.60
2019-02-25T12:00:53.299Z,28.03
2019-02-25T12:02:59.484Z,27.80
2019-02-25T12:05:09.110Z,30.90
2019-02-25T12:07:15.292Z,26.17
2019-02-25T12:09:21.521Z,27.00
2019-02-25T12:11:27.695Z,32.90
2019-02-25T12:13:33.861Z,26.87
2019-02-25T12:15:39.837Z,27.87
2019-02-25T12:17:45.887Z,24.83
2019-02-25T12:19:51.925Z,28.57
2019-02-25T12:21:57.988Z,26.60
2019-02-25T12:24:04.134Z,25.40
2019-02-25T12:26:10.120Z,23.57
2019-02-25T12:28:16.244Z,43.70
2019-02-25T12:30:27.968Z,27.33
2019-02-25T12:32:34.306Z,34.77
2019-02-25T12:34:44.157Z,29.33
2019-02-25T12:36:56.378Z,27.23
2019-02-25T12:39:08.465Z,22.60
2019-02-25T12:41:16.250Z,27.53
2019-02-25T12:43:22.337Z,26.63
2019-02-25T12:45:28.635Z,29.77
2019-02-25T12:47:34.809Z,24.60
2019-02-25T12:49:40.961Z,28.67
2019-02-25T12:51:47.260Z,26.70
2019-02-25T12:53:53.491Z,22.73
2019-02-25T12:55:59.643Z,23.30
2019-02-25T12:58:05.901Z,48.77
2019-02-25T13:00:25.476Z,71.17
2019-02-25T13:02:31.847Z,48.23
2019-02-25T13:04:37.990Z,25.70
2019-02-25T13:06:44.243Z,25.10
2019-02-25T13:08:50.530Z,21.23
2019-02-25T13:10:56.678Z,27.50
2019-02-25T13:13:02.831Z,25.43
2019-02-25T13:15:13.864Z,28.63
2019-02-25T13:17:20.069Z,25.83
2019-02-25T13:19:26.340Z,22.60
2019-02-25T13:21:32.594Z,26.33
2019-02-25T13:23:38.861Z,25.40
2019-02-25T13:25:45.124Z,20.87
2019-02-25T13:27:52.022Z,24.57
2019-02-25T13:29:59.150Z,30.10
2019-02-25T13:32:05.627Z,18.03
2019-02-25T13:34:11.989Z,22.83
2019-02-25T13:36:18.256Z,21.53
2019-02-25T13:38:24.440Z,23.97
2019-02-25T13:40:30.874Z,22.00
2019-02-25T13:42:37.128Z,24.27
2019-02-25T13:44:46.789Z,21.50
2019-02-25T13:46:53.447Z,23.33
2019-02-25T13:48:59.713Z,18.63
2019-02-25T13:51:06.052Z,13.23
2019-02-25T13:53:12.458Z,16.20
2019-02-25T13:55:21.665Z,18.77
2019-02-25T13:57:27.911Z,15.97
2019-02-25T13:59:33.998Z,16.90
2019-02-25T14:01:40.245Z,15.80
2019-02-25T14:03:46.620Z,19.77
2019-02-25T14:05:52.972Z,18.87
2019-02-25T14:07:59.230Z,23.37
2019-02-25T14:10:10.086Z,33.40
2019-02-25T14:12:16.332Z,29.33
2019-02-25T14:14:22.615Z,17.10
2019-02-25T14:16:28.769Z,19.83
2019-02-25T14:18:36.305Z,17.87
2019-02-25T14:20:44.407Z,16.00
2019-02-25T14:22:50.776Z,12.80
2019-02-25T14:24:57.080Z,17.77
2019-02-25T14:27:03.349Z,13.40
2019-02-25T14:29:09.769Z,14.57
2019-02-25T14:31:16.099Z,14.50
2019-02-25T14:33:23.603Z,18.23
2019-02-25T14:35:34.289Z,12.40
2019-02-25T14:37:40.688Z,15.30
2019-02-25T14:39:51.563Z,13.10
2019-02-25T14:41:58.973Z,12.47
2019-02-25T14:44:03.897Z,13.57
2019-02-25T14:46:12.157Z,12.33
2019-02-25T14:48:20.730Z,12.50
2019-02-25T14:50:27.691Z,14.30
2019-02-25T14:52:34.547Z,12.77
2019-02-25T14:54:40.808Z,12.77
2019-02-25T14:56:49.629Z,14.30
2019-02-25T14:58:55.220Z,12.33
2019-02-25T15:01:01.550Z,11.80
2019-02-25T15:03:08.247Z,11.47
2019-02-25T15:05:15.178Z,12.13
2019-02-25T15:07:22.668Z,11.50
2019-02-25T15:09:30.705Z,13.43
2019-02-25T15:11:37.470Z,10.47
2019-02-25T15:13:43.804Z,12.53
2019-02-25T15:15:52.435Z,11.03
2019-02-25T15:17:58.876Z,11.40
2019-02-25T15:20:12.640Z,9.73
2019-02-25T15:22:18.868Z,11.50
2019-02-25T15:24:25.134Z,12.60
2019-02-25T15:26:31.634Z,10.23
2019-02-25T15:28:37.873Z,14.23
2019-02-25T15:30:45.170Z,9.90
2019-02-25T15:32:55.737Z,10.40
2019-02-25T15:35:01.729Z,10.23
2019-02-25T15:37:09.612Z,10.57
2019-02-25T15:39:16.366Z,11.13
2019-02-25T15:41:22.808Z,11.17
2019-02-25T15:43:29.995Z,16.37
2019-02-25T15:45:40.696Z,10.93
2019-02-25T15:47:47.036Z,11.50
2019-02-25T15:49:55.623Z,11.40
2019-02-25T15:52:03.111Z,11.20
2019-02-25T15:54:10.226Z,11.90
2019-02-25T15:56:18.121Z,12.67
2019-02-25T15:58:24.734Z,11.63
2019-02-25T16:00:34.009Z,10.43
2019-02-25T16:02:40.162Z,11.23
2019-02-25T16:04:48.341Z,11.33
2019-02-25T16:06:59.357Z,12.87
2019-02-25T16:09:07.758Z,10.73
2019-02-25T16:11:18.328Z,8.77
2019-02-25T16:13:24.467Z,11.27
2019-02-25T16:15:32.241Z,13.10
2019-02-25T16:17:38.628Z,12.33
2019-02-25T16:19:47.837Z,11.67
2019-02-25T16:21:58.421Z,25.70
2019-02-25T16:24:08.135Z,12.00
2019-02-25T16:26:15.591Z,12.00
2019-02-25T16:28:21.596Z,13.93
2019-02-25T16:30:30.494Z,12.13
2019-02-25T16:32:36.008Z,25.27
2019-02-25T16:34:45.389Z,12.53
2019-02-25T16:36:53.790Z,8.87
2019-02-25T16:39:05.889Z,10.30
2019-02-25T16:41:16.053Z,11.67
2019-02-25T16:43:22.705Z,11.10
2019-02-25T16:45:34.794Z,11.60
2019-02-25T16:47:37.939Z,11.33
2019-02-25T16:49:44.585Z,10.30
2019-02-25T16:51:53.057Z,8.93
2019-02-25T16:53:59.452Z,10.77
2019-02-25T16:56:09.463Z,9.77
2019-02-25T16:58:15.446Z,9.53
2019-02-25T17:00:25.168Z,22.43
2019-02-25T17:02:35.903Z,15.17
2019-02-25T17:04:45.935Z,11.37
2019-02-25T17:06:53.477Z,18.00
2019-02-25T17:09:05.744Z,12.47
2019-02-25T17:11:17.879Z,10.27
2019-02-25T17:13:28.735Z,10.57
2019-02-25T17:15:35.445Z,10.40
2019-02-25T17:17:44.775Z,9.27
2019-02-25T17:19:51.487Z,10.23
2019-02-25T17:21:59.450Z,10.20
2019-02-25T17:24:07.385Z,9.13
2019-02-25T17:26:17.367Z,9.93
2019-02-25T17:28:25.768Z,10.63
2019-02-25T17:30:35.072Z,9.97
2019-02-25T17:32:43.653Z,9.17
2019-02-25T17:34:49.989Z,9.67
2019-02-25T17:36:56.451Z,9.27
2019-02-25T17:39:02.831Z,7.97
2019-02-25T17:41:13.048Z,9.90
2019-02-25T17:43:20.274Z,7.87
2019-02-25T17:45:32.446Z,9.10
2019-02-25T17:47:39.604Z,10.47
2019-02-25T17:49:46.932Z,11.97
2019-02-25T17:51:55.125Z,10.27
2019-02-25T17:54:02.103Z,10.80
2019-02-25T17:56:11.658Z,12.43
2019-02-25T17:58:19.800Z,9.83
2019-02-25T18:00:36.643Z,9.13
2019-02-25T18:02:42.838Z,9.57
2019-02-25T18:04:50.943Z,8.80
2019-02-25T18:06:58.935Z,10.10
2019-02-25T18:09:08.404Z,9.60
2019-02-25T18:11:17.930Z,10.60
2019-02-25T18:13:26.366Z,9.37
2019-02-25T18:15:34.705Z,8.77
2019-02-25T18:17:42.796Z,9.87
2019-02-25T18:19:50.171Z,9.73
2019-02-25T18:21:58.717Z,8.50
2019-02-25T18:24:05.674Z,9.23
2019-02-25T18:26:14.833Z,9.20
2019-02-25T18:28:22.542Z,12.30
2019-02-25T18:30:33.148Z,11.50
2019-02-25T18:32:40.009Z,12.67
2019-02-25T18:34:47.264Z,9.50
2019-02-25T18:36:55.491Z,9.07
2019-02-25T18:39:03.752Z,9.47
2019-02-25T18:41:12.018Z,8.53
2019-02-25T18:43:20.066Z,7.90
2019-02-25T18:45:30.396Z,8.03
2019-02-25T18:47:39.891Z,9.37
2019-02-25T18:49:49.783Z,9.63
2019-02-25T18:51:56.752Z,7.67
2019-02-25T18:54:04.092Z,10.07
2019-02-25T18:56:11.918Z,8.87
2019-02-25T18:58:20.023Z,8.77
2019-02-25T19:00:37.576Z,8.30
2019-02-25T19:02:45.340Z,8.27
2019-02-25T19:04:51.775Z,8.93
2019-02-25T19:06:59.840Z,9.60
2019-02-25T19:09:12.435Z,9.53
2019-02-25T19:11:21.279Z,9.60
2019-02-25T19:13:30.351Z,9.10
2019-02-25T19:15:37.696Z,7.20
2019-02-25T19:17:45.849Z,10.07
2019-02-25T19:19:56.295Z,9.00
2019-02-25T19:22:03.162Z,9.00
2019-02-25T19:24:11.745Z,9.30
2019-02-25T19:26:19.698Z,6.30
2019-02-25T19:28:30.214Z,8.90
2019-02-25T19:30:38.531Z,7.93
2019-02-25T19:32:45.540Z,9.07
2019-02-25T19:34:56.234Z,7.03
2019-02-25T19:37:04.545Z,7.73
2019-02-25T19:39:14.396Z,7.27
2019-02-25T19:41:24.520Z,7.90
2019-02-25T19:43:31.110Z,7.37
2019-02-25T19:45:38.582Z,7.03
2019-02-25T19:47:45.949Z,8.43
2019-02-25T19:49:52.486Z,9.00
2019-02-25T19:51:59.354Z,8.17
2019-02-25T19:54:06.928Z,8.93
2019-02-25T19:56:14.041Z,8.33
2019-02-25T19:58:20.920Z,8.47
2019-02-25T20:00:30.371Z,8.77
2019-02-25T20:02:38.017Z,8.50
2019-02-25T20:04:49.485Z,9.20
2019-02-25T20:06:58.520Z,8.23
2019-02-25T20:09:07.863Z,8.43
2019-02-25T20:11:17.345Z,8.80
2019-02-25T20:13:25.937Z,9.53
2019-02-25T20:15:32.687Z,8.93
2019-02-25T20:17:40.716Z,6.80
2019-02-25T20:19:48.427Z,10.13
2019-02-25T20:21:57.300Z,8.13
2019-02-25T20:24:04.519Z,9.43
2019-02-25T20:26:13.471Z,8.77
2019-02-25T20:28:29.934Z,9.10
2019-02-25T20:30:38.063Z,9.50
2019-02-25T20:32:44.582Z,9.00
2019-02-25T20:34:52.862Z,9.67
2019-02-25T20:37:01.585Z,10.03
2019-02-25T20:39:13.729Z,9.33
2019-02-25T20:41:22.274Z,9.87
2019-02-25T20:43:30.826Z,10.70
2019-02-25T20:45:37.749Z,8.90
2019-02-25T20:47:44.514Z,10.60
2019-02-25T20:49:55.653Z,8.47
2019-02-25T20:52:01.232Z,9.73
2019-02-25T20:54:08.942Z,9.80
2019-02-25T20:56:16.419Z,9.50
2019-02-25T20:58:27.267Z,9.87
2019-02-25T21:00:36.942Z,7.83
2019-02-25T21:02:40.960Z,10.03
2019-02-25T21:04:48.604Z,9.97
2019-02-25T21:06:55.599Z,11.37
2019-02-25T21:09:02.478Z,9.97
2019-02-25T21:11:13.451Z,10.47
2019-02-25T21:13:22.023Z,10.27
2019-02-25T21:15:31.889Z,8.93
2019-02-25T21:17:40.271Z,10.20
2019-02-25T21:19:47.079Z,9.97
2019-02-25T21:21:57.292Z,8.80
2019-02-25T21:24:06.264Z,8.43
2019-02-25T21:26:12.840Z,9.77
2019-02-25T21:28:19.456Z,9.33
2019-02-25T21:30:26.200Z,10.40
2019-02-25T21:32:32.769Z,10.43
2019-02-25T21:34:39.329Z,10.03
2019-02-25T21:36:45.923Z,10.00
2019-02-25T21:38:53.960Z,9.30
2019-02-25T21:41:00.400Z,10.00
2019-02-25T21:43:07.059Z,8.80
2019-02-25T21:45:20.283Z,8.73
2019-02-25T21:47:28.595Z,9.33
2019-02-25T21:49:36.461Z,8.80
2019-02-25T21:51:43.734Z,9.40
2019-02-25T21:53:53.689Z,7.80
2019-02-25T21:56:04.167Z,9.07
2019-02-25T21:58:06.664Z,8.33
2019-02-25T22:00:18.766Z,9.07
2019-02-25T22:02:26.041Z,8.17
2019-02-25T22:04:32.532Z,8.33
2019-02-25T22:06:38.955Z,8.00
2019-02-25T22:08:45.118Z,9.60
2019-02-25T22:10:51.381Z,9.20
2019-02-25T22:12:58.657Z,9.33
2019-02-25T22:15:05.659Z,9.50
2019-02-25T22:17:12.974Z,9.53
2019-02-25T22:19:20.967Z,7.73
2019-02-25T22:21:28.719Z,7.40
2019-02-25T22:23:37.039Z,9.13
2019-02-25T22:25:43.195Z,9.07
2019-02-25T22:27:49.451Z,8.40
2019-02-25T22:29:55.705Z,9.33
2019-02-25T22:32:03.896Z,9.00
2019-02-25T22:34:12.823Z,8.83
2019-02-25T22:36:17.776Z,8.37
2019-02-25T22:38:24.022Z,8.67
2019-02-25T22:40:32.064Z,8.90
2019-02-25T22:42:38.097Z,8.87
2019-02-25T22:44:47.546Z,8.50
2019-02-25T22:46:53.779Z,9.73
2019-02-25T22:49:00.928Z,8.53
2019-02-25T22:51:07.924Z,9.17
2019-02-25T22:53:15.630Z,9.03
2019-02-25T22:55:22.668Z,9.00
2019-02-25T22:57:29.607Z,9.43
2019-02-25T22:59:35.952Z,9.37
2019-02-25T23:01:42.211Z,10.03
2019-02-25T23:03:50.546Z,10.10
2019-02-25T23:05:56.386Z,10.57
2019-02-25T23:08:03.316Z,10.43
2019-02-25T23:10:12.878Z,11.70
2019-02-25T23:12:19.784Z,9.63
2019-02-25T23:14:27.241Z,10.67
2019-02-25T23:16:33.412Z,10.80
2019-02-25T23:18:39.644Z,10.17
2019-02-25T23:20:45.805Z,10.50
2019-02-25T23:22:53.037Z,11.10
2019-02-25T23:24:59.974Z,10.73
2019-02-25T23:27:06.265Z,10.70
2019-02-25T23:29:12.492Z,10.80
2019-02-25T23:31:18.659Z,11.37
2019-02-25T23:33:24.798Z,11.27
2019-02-25T23:35:30.968Z,9.50
2019-02-25T23:37:37.227Z,9.93
2019-02-25T23:39:44.917Z,9.20
2019-02-25T23:41:51.161Z,8.83
2019-02-25T23:43:57.146Z,9.23
2019-02-25T23:46:04.515Z,8.60
2019-02-25T23:48:11.898Z,9.17
2019-02-25T23:50:18.167Z,9.67
2019-02-25T23:52:25.772Z,8.73
2019-02-25T23:54:32.198Z,8.80
2019-02-25T23:56:38.372Z,8.90
2019-02-25T23:58:45.044Z,9.77
